Time;durP1;ratioP1;P1;durP2;ratioP2;P2;SDS_P1;SDS_P2;PMS_P1;PMS_P2;Temp;Humidity;BMP_temperature;BMP_pressure;BME280_temperature;BME280_humidity;BME280_pressure;Samples;Min_cycle;Max_cycle;Signal;HPM_P1;HPM_P2
2023/05/21 00:01:02;;;;;;;6.40;3.88;;;15.20;99.90;;;;;;5001041;28;20069;-84
2023/05/21 00:03:29;;;;;;;7.30;3.75;;;15.20;99.90;;;;;;4984226;28;20045;-84
2023/05/21 00:05:55;;;;;;;5.65;3.90;;;15.10;99.90;;;;;;5033320;28;20045;-85
2023/05/21 00:08:21;;;;;;;8.07;3.55;;;15.10;99.90;;;;;;5016702;28;20132;-84
2023/05/21 00:10:47;;;;;;;5.28;3.72;;;15.10;99.90;;;;;;5033229;28;20101;-84
2023/05/21 00:13:13;;;;;;;5.75;3.65;;;15.10;99.90;;;;;;5020941;28;20504;-86
2023/05/21 00:15:39;;;;;;;5.00;3.78;;;15.10;99.90;;;;;;5034331;28;20119;-85
2023/05/21 00:18:05;;;;;;;6.43;3.55;;;15.10;99.90;;;;;;4987284;28;20141;-84
2023/05/21 00:20:33;;;;;;;6.00;3.90;;;15.10;99.90;;;;;;5015491;28;20033;-84
2023/05/21 00:23:01;;;;;;;6.40;3.55;;;15.10;99.90;;;;;;5035947;28;20094;-84
2023/05/21 00:25:27;;;;;;;6.88;3.55;;;15.10;99.90;;;;;;5003546;28;20045;-84
2023/05/21 00:27:54;;;;;;;6.43;3.47;;;15.10;99.90;;;;;;5018859;28;20413;-84
2023/05/21 00:30:20;;;;;;;5.72;3.45;;;15.10;99.90;;;;;;5035114;28;20447;-86
2023/05/21 00:32:46;;;;;;;5.28;3.90;;;15.00;99.90;;;;;;5034975;28;20049;-85
2023/05/21 00:35:12;;;;;;;6.28;4.03;;;15.00;99.90;;;;;;4983427;28;20080;-85
2023/05/21 00:37:37;;;;;;;6.47;3.60;;;15.00;99.90;;;;;;5018980;28;20048;-85
2023/05/21 00:40:06;;;;;;;5.18;3.40;;;15.00;99.90;;;;;;5019416;28;20033;-85
2023/05/21 00:42:32;;;;;;;7.25;3.88;;;14.90;99.90;;;;;;5033977;28;20037;-85
2023/05/21 00:44:58;;;;;;;4.28;3.08;;;14.90;99.90;;;;;;5015728;28;20453;-84
2023/05/21 00:47:28;;;;;;;7.28;4.05;;;14.90;99.90;;;;;;5001213;28;20048;-83
2023/05/21 00:49:54;;;;;;;5.70;3.25;;;14.90;99.90;;;;;;5017908;28;20048;-83
2023/05/21 00:52:20;;;;;;;5.43;3.67;;;14.80;99.90;;;;;;5016789;28;20450;-84
2023/05/21 00:54:48;;;;;;;7.40;3.97;;;14.80;99.90;;;;;;5011223;28;20044;-84
2023/05/21 00:57:15;;;;;;;6.07;3.72;;;14.80;99.90;;;;;;5019327;28;20040;-84
2023/05/21 00:59:40;;;;;;;6.65;3.95;;;14.80;99.90;;;;;;5019239;28;20037;-83
2023/05/21 01:02:08;;;;;;;5.93;3.42;;;14.80;99.90;;;;;;5018746;28;20546;-84
2023/05/21 01:04:34;;;;;;;6.10;3.88;;;14.80;99.90;;;;;;4998790;28;20120;-84
2023/05/21 01:07:00;;;;;;;5.78;3.58;;;14.80;99.90;;;;;;5015823;28;20045;-84
2023/05/21 01:09:27;;;;;;;6.35;3.83;;;14.80;99.90;;;;;;5005046;28;20049;-84
2023/05/21 01:11:54;;;;;;;5.90;3.75;;;14.80;99.90;;;;;;5033176;28;20083;-84
2023/05/21 01:14:21;;;;;;;6.85;3.92;;;14.70;99.90;;;;;;5018854;28;20552;-84
2023/05/21 01:16:49;;;;;;;5.55;3.83;;;14.80;99.90;;;;;;5018463;28;20066;-84
2023/05/21 01:19:17;;;;;;;5.00;3.72;;;14.80;99.90;;;;;;5034021;28;20047;-85
2023/05/21 01:21:51;;;;;;;5.22;3.75;;;14.70;99.90;;;;;;5018952;28;20044;-85
2023/05/21 01:24:17;;;;;;;8.00;3.80;;;14.70;99.90;;;;;;5022240;28;20043;-85
2023/05/21 01:26:45;;;;;;;7.32;4.07;;;14.70;99.90;;;;;;5030198;28;20042;-85
2023/05/21 01:29:12;;;;;;;7.55;3.78;;;14.70;99.90;;;;;;5010968;28;20555;-85
2023/05/21 01:32:02;;;;;;;6.22;3.92;;;14.60;99.90;;;;;;5016300;28;20529;-84
2023/05/21 01:34:46;;;;;;;6.07;3.70;;;14.60;99.90;;;;;;5014588;28;20058;-84
2023/05/21 01:37:22;;;;;;;5.68;3.80;;;14.50;99.90;;;;;;4998868;28;20132;-85
2023/05/21 01:39:55;;;;;;;6.03;4.05;;;14.50;99.90;;;;;;5015760;28;20038;-84
2023/05/21 01:42:23;;;;;;;7.25;3.85;;;14.50;99.90;;;;;;4999217;28;20131;-84
2023/05/21 01:44:53;;;;;;;7.07;3.90;;;14.50;99.90;;;;;;5011748;28;20132;-85
2023/05/21 01:47:24;;;;;;;5.60;4.25;;;14.50;99.90;;;;;;5013995;28;20049;-85
2023/05/21 01:49:51;;;;;;;9.30;4.65;;;14.50;99.90;;;;;;4995141;28;20038;-85
2023/05/21 01:52:17;;;;;;;6.72;3.83;;;14.50;99.90;;;;;;4979510;28;21635;-85
2023/05/21 01:54:43;;;;;;;8.93;4.00;;;14.50;99.90;;;;;;4979296;28;20042;-84
2023/05/21 01:57:09;;;;;;;8.10;3.90;;;14.50;99.90;;;;;;4963596;28;20044;-85
2023/05/21 01:59:35;;;;;;;6.72;3.92;;;14.40;99.90;;;;;;4947906;28;20048;-84
2023/05/21 02:02:01;;;;;;;5.78;3.80;;;14.40;99.90;;;;;;4983654;28;20042;-85
2023/05/21 02:04:26;;;;;;;8.10;4.07;;;14.40;99.90;;;;;;4979124;28;20064;-84
2023/05/21 02:06:53;;;;;;;5.40;4.07;;;14.40;99.90;;;;;;4963117;28;20096;-84
2023/05/21 02:09:19;;;;;;;9.05;4.53;;;14.40;99.90;;;;;;4973523;28;20041;-84
2023/05/21 02:11:45;;;;;;;7.60;3.78;;;14.40;99.90;;;;;;4982820;28;20402;-85
2023/05/21 02:14:12;;;;;;;7.55;4.55;;;14.30;99.90;;;;;;4982253;28;20037;-85
2023/05/21 02:16:39;;;;;;;9.18;4.22;;;14.30;99.90;;;;;;4998739;28;20139;-85
2023/05/21 02:19:05;;;;;;;7.82;4.10;;;14.30;99.90;;;;;;4986578;28;20309;-85
2023/05/21 02:21:31;;;;;;;6.38;4.00;;;14.30;99.90;;;;;;4963328;28;20033;-85
2023/05/21 02:23:57;;;;;;;6.70;4.60;;;14.30;99.90;;;;;;4979269;28;20038;-85
2023/05/21 02:26:23;;;;;;;6.40;3.83;;;14.30;99.90;;;;;;4976903;28;20371;-85
2023/05/21 02:28:48;;;;;;;6.10;4.30;;;14.20;99.90;;;;;;4986475;28;20052;-85
2023/05/21 02:31:14;;;;;;;7.35;4.47;;;14.20;99.90;;;;;;4997213;28;20153;-85
2023/05/21 02:33:40;;;;;;;6.53;4.07;;;14.20;99.90;;;;;;5017309;28;20048;-85
2023/05/21 02:36:11;;;;;;;8.02;5.03;;;14.20;99.90;;;;;;5006966;28;20128;-84
2023/05/21 02:38:42;;;;;;;7.20;3.97;;;14.20;99.90;;;;;;5009846;28;20033;-83
2023/05/21 02:41:08;;;;;;;5.50;4.32;;;14.20;99.90;;;;;;5017901;28;20029;-84
2023/05/21 02:43:34;;;;;;;10.73;4.68;;;14.20;99.90;;;;;;5020030;28;20041;-85
2023/05/21 02:46:00;;;;;;;7.95;4.78;;;14.10;99.90;;;;;;5008650;28;20041;-84
2023/05/21 02:48:26;;;;;;;6.13;4.40;;;14.10;99.90;;;;;;5001971;28;20485;-84
2023/05/21 02:50:51;;;;;;;7.20;4.28;;;14.10;99.90;;;;;;4970193;28;20096;-84
2023/05/21 02:53:17;;;;;;;9.07;4.30;;;14.10;99.90;;;;;;5030873;28;20045;-85
2023/05/21 02:55:43;;;;;;;6.18;4.20;;;14.10;99.90;;;;;;4998459;28;20040;-85
2023/05/21 02:58:08;;;;;;;5.65;4.45;;;14.10;99.90;;;;;;5011023;28;20033;-84
2023/05/21 03:00:34;;;;;;;8.35;4.80;;;14.10;99.90;;;;;;4972246;28;20055;-86
2023/05/21 03:03:00;;;;;;;5.18;4.22;;;14.10;99.90;;;;;;4984409;28;20116;-85
2023/05/21 03:05:26;;;;;;;9.95;4.80;;;14.10;99.90;;;;;;5017669;28;20129;-85
2023/05/21 03:07:52;;;;;;;8.40;4.80;;;14.10;99.90;;;;;;5034165;28;20041;-85
2023/05/21 03:10:18;;;;;;;8.18;4.78;;;14.10;99.90;;;;;;4991822;28;20084;-84
2023/05/21 03:12:43;;;;;;;8.43;5.28;;;14.00;99.90;;;;;;5001377;28;20083;-85
2023/05/21 03:15:09;;;;;;;7.75;5.00;;;14.00;99.90;;;;;;5015367;28;20048;-85
2023/05/21 03:17:35;;;;;;;7.68;4.57;;;14.00;99.90;;;;;;5000612;28;20041;-85
2023/05/21 03:20:03;;;;;;;6.40;4.75;;;14.00;99.90;;;;;;4999794;28;20044;-85
2023/05/21 03:22:29;;;;;;;7.53;5.35;;;14.00;99.90;;;;;;5021665;28;20103;-85
2023/05/21 03:24:55;;;;;;;8.27;4.43;;;14.00;99.90;;;;;;4985134;28;20049;-85
2023/05/21 03:27:20;;;;;;;7.63;4.68;;;14.00;99.90;;;;;;4995063;28;20045;-84
2023/05/21 03:29:46;;;;;;;7.32;5.00;;;14.00;99.90;;;;;;5003242;28;20487;-85
2023/05/21 03:32:12;;;;;;;8.88;4.80;;;14.00;99.90;;;;;;5019134;28;20063;-85
2023/05/21 03:34:38;;;;;;;8.73;4.78;;;14.10;99.90;;;;;;5034739;28;20048;-85
2023/05/21 03:37:04;;;;;;;12.65;5.10;;;14.10;99.90;;;;;;5002251;28;20037;-85
2023/05/21 03:39:30;;;;;;;9.85;5.40;;;14.00;99.90;;;;;;5000032;28;20099;-85
2023/05/21 03:41:55;;;;;;;15.00;5.30;;;14.00;99.90;;;;;;4993342;28;20485;-85
2023/05/21 03:44:21;;;;;;;7.10;5.15;;;14.00;99.90;;;;;;5001829;28;20056;-85
2023/05/21 03:46:47;;;;;;;13.82;5.95;;;14.00;99.90;;;;;;5017334;28;20041;-85
2023/05/21 03:49:13;;;;;;;8.15;5.45;;;14.00;99.90;;;;;;4998706;28;20041;-85
2023/05/21 03:51:39;;;;;;;8.90;5.50;;;14.00;99.90;;;;;;5023887;28;20049;-83
2023/05/21 03:54:04;;;;;;;7.35;4.75;;;14.00;99.90;;;;;;5008633;28;20136;-85
2023/05/21 03:56:30;;;;;;;10.57;5.05;;;14.00;99.90;;;;;;5018004;28;20034;-85
2023/05/21 03:58:55;;;;;;;11.25;5.28;;;14.00;99.90;;;;;;5017558;28;20132;-85
2023/05/21 04:01:21;;;;;;;9.35;5.30;;;14.00;99.90;;;;;;4987354;28;20496;-85
2023/05/21 04:03:47;;;;;;;9.48;5.45;;;14.00;99.90;;;;;;5020384;28;20125;-85
2023/05/21 04:06:13;;;;;;;9.88;5.55;;;14.00;99.90;;;;;;5035902;28;20110;-85
2023/05/21 04:08:38;;;;;;;8.65;5.55;;;14.00;99.90;;;;;;5036913;28;20060;-85
2023/05/21 04:11:04;;;;;;;9.45;6.00;;;14.00;99.90;;;;;;5020451;28;20041;-84
2023/05/21 04:13:30;;;;;;;9.52;6.03;;;14.00;99.90;;;;;;5003476;28;20041;-85
2023/05/21 04:15:55;;;;;;;11.00;5.97;;;14.00;99.90;;;;;;5036520;28;20134;-85
2023/05/21 04:18:24;;;;;;;11.48;6.07;;;14.00;99.90;;;;;;4989585;28;20045;-85
2023/05/21 04:20:50;;;;;;;10.48;5.93;;;14.00;99.90;;;;;;4976985;28;20042;-85
2023/05/21 04:23:16;;;;;;;10.13;6.03;;;14.00;99.90;;;;;;4984252;28;20052;-84
2023/05/21 04:25:41;;;;;;;8.88;5.38;;;14.00;99.90;;;;;;4984406;28;20072;-85
2023/05/21 04:28:07;;;;;;;11.82;6.10;;;14.10;99.90;;;;;;5020936;28;20080;-85
2023/05/21 04:30:36;;;;;;;9.15;6.22;;;14.00;99.90;;;;;;5020950;28;20044;-86
2023/05/21 04:33:02;;;;;;;9.00;5.82;;;14.10;99.90;;;;;;5019620;28;20049;-84
2023/05/21 04:35:28;;;;;;;10.20;5.82;;;14.10;99.90;;;;;;5018758;28;20043;-85
2023/05/21 04:37:53;;;;;;;9.55;5.72;;;14.10;99.90;;;;;;4993385;28;20393;-84
2023/05/21 04:40:23;;;;;;;9.45;6.03;;;14.10;99.90;;;;;;5003434;28;20041;-85
2023/05/21 04:42:52;;;;;;;10.65;6.53;;;14.10;99.90;;;;;;5004275;28;20051;-85
2023/05/21 04:45:17;;;;;;;8.57;6.00;;;14.20;99.90;;;;;;4999789;28;20041;-84
2023/05/21 04:47:43;;;;;;;14.50;6.13;;;14.20;99.90;;;;;;5021010;28;20489;-86
2023/05/21 04:50:09;;;;;;;6.53;5.25;;;14.10;99.90;;;;;;5013674;28;20036;-85
2023/05/21 04:52:36;;;;;;;11.02;5.90;;;14.20;99.90;;;;;;5017388;28;20409;-85
2023/05/21 04:55:02;;;;;;;11.05;5.82;;;14.20;99.90;;;;;;5026860;28;20067;-85
2023/05/21 04:57:28;;;;;;;10.18;5.70;;;14.20;99.90;;;;;;4999443;28;20113;-84
2023/05/21 04:59:55;;;;;;;9.40;6.07;;;14.20;99.90;;;;;;4999481;28;20041;-84
2023/05/21 05:02:20;;;;;;;8.65;5.85;;;14.20;99.90;;;;;;4998651;28;20124;-84
2023/05/21 05:04:46;;;;;;;10.52;5.70;;;14.20;99.90;;;;;;5002243;28;20580;-86
2023/05/21 05:07:12;;;;;;;7.85;5.53;;;14.20;99.90;;;;;;5011221;28;20033;-84
2023/05/21 05:09:38;;;;;;;8.70;4.90;;;14.20;99.90;;;;;;5038372;28;20555;-85
2023/05/21 05:12:04;;;;;;;8.60;5.70;;;14.20;99.90;;;;;;5002486;28;20115;-85
2023/05/21 05:14:30;;;;;;;8.77;5.50;;;14.20;99.90;;;;;;5003158;28;20033;-85
2023/05/21 05:16:59;;;;;;;8.70;5.60;;;14.20;99.90;;;;;;5000485;28;20041;-85
2023/05/21 05:19:25;;;;;;;10.07;5.47;;;14.20;99.90;;;;;;4981051;28;20036;-84
2023/05/21 05:21:51;;;;;;;8.93;5.60;;;14.20;99.90;;;;;;5002099;28;20049;-85
2023/05/21 05:24:17;;;;;;;7.13;5.40;;;14.20;99.90;;;;;;5013357;28;20160;-85
2023/05/21 05:26:43;;;;;;;10.25;5.68;;;14.20;99.90;;;;;;4994077;28;20601;-84
2023/05/21 05:29:08;;;;;;;7.90;5.47;;;14.20;99.90;;;;;;4983148;28;20057;-84
2023/05/21 05:31:34;;;;;;;8.93;5.90;;;14.30;99.90;;;;;;4995772;28;20053;-85
2023/05/21 05:34:00;;;;;;;8.85;5.47;;;14.30;99.90;;;;;;5002190;28;20389;-85
2023/05/21 05:36:26;;;;;;;6.60;4.90;;;14.30;99.90;;;;;;5002283;28;20124;-85
2023/05/21 05:38:51;;;;;;;8.68;5.15;;;14.30;99.90;;;;;;5002215;28;20041;-85
2023/05/21 05:41:17;;;;;;;9.73;5.82;;;14.30;99.90;;;;;;5017751;28;20123;-85
2023/05/21 05:43:43;;;;;;;10.95;5.65;;;14.40;99.90;;;;;;4987755;28;20045;-84
2023/05/21 05:46:08;;;;;;;8.45;5.68;;;14.40;99.90;;;;;;4998925;28;20449;-84
2023/05/21 05:48:34;;;;;;;8.80;5.25;;;14.40;99.90;;;;;;4998757;28;20068;-85
2023/05/21 05:51:00;;;;;;;11.60;5.38;;;14.40;99.90;;;;;;5031536;28;20401;-85
2023/05/21 05:53:26;;;;;;;8.07;5.32;;;14.40;99.90;;;;;;5031335;28;20044;-85
2023/05/21 05:55:52;;;;;;;7.57;5.13;;;14.40;99.90;;;;;;5015549;28;20053;-85
2023/05/21 05:58:17;;;;;;;9.63;5.38;;;14.40;99.90;;;;;;5013106;28;20037;-86
2023/05/21 06:00:43;;;;;;;9.50;5.35;;;14.50;99.90;;;;;;5015402;28;20041;-83
2023/05/21 06:03:10;;;;;;;9.90;5.00;;;14.50;99.90;;;;;;5026301;28;20073;-84
2023/05/21 06:05:36;;;;;;;7.30;4.68;;;14.50;99.90;;;;;;5001574;28;20073;-85
2023/05/21 06:08:02;;;;;;;10.27;5.35;;;14.60;99.90;;;;;;4981775;28;20076;-84
2023/05/21 06:10:27;;;;;;;10.32;6.00;;;14.60;99.90;;;;;;5018053;28;20045;-84
2023/05/21 06:12:55;;;;;;;10.80;5.65;;;14.60;99.90;;;;;;5015881;28;20130;-83
2023/05/21 06:15:21;;;;;;;7.32;5.25;;;14.60;99.90;;;;;;5001268;28;20048;-83
2023/05/21 06:17:47;;;;;;;10.95;5.45;;;14.70;99.90;;;;;;5032489;28;20037;-82
2023/05/21 06:20:12;;;;;;;8.98;5.60;;;14.70;99.90;;;;;;5003666;28;20037;-84
2023/05/21 06:22:38;;;;;;;8.13;5.38;;;14.70;99.90;;;;;;5033985;28;20043;-83
2023/05/21 06:25:05;;;;;;;8.43;5.00;;;14.80;99.90;;;;;;5027068;28;20044;-85
2023/05/21 06:27:32;;;;;;;8.32;5.05;;;14.80;99.90;;;;;;5020665;28;20124;-83
2023/05/21 06:29:57;;;;;;;9.82;4.95;;;14.90;99.90;;;;;;5029558;28;20489;-83
2023/05/21 06:32:24;;;;;;;8.63;5.85;;;14.90;99.90;;;;;;4998208;28;20142;-83
2023/05/21 06:34:50;;;;;;;14.52;5.40;;;14.90;99.90;;;;;;5017428;28;20052;-83
2023/05/21 06:37:20;;;;;;;10.98;5.22;;;15.00;99.90;;;;;;5032966;28;20037;-84
2023/05/21 06:39:45;;;;;;;9.70;5.43;;;15.00;99.90;;;;;;5008175;28;20045;-83
2023/05/21 06:42:11;;;;;;;10.25;5.28;;;15.00;99.90;;;;;;4969583;28;20037;-84
2023/05/21 06:44:37;;;;;;;9.30;4.82;;;15.10;99.90;;;;;;5037725;28;20101;-85
2023/05/21 06:47:02;;;;;;;9.15;5.57;;;15.10;99.90;;;;;;5035246;28;20033;-84
2023/05/21 06:49:28;;;;;;;11.80;5.43;;;15.10;99.90;;;;;;5018583;28;20477;-84
2023/05/21 06:51:54;;;;;;;9.13;5.25;;;15.20;99.90;;;;;;5020096;28;20504;-84
2023/05/21 06:54:19;;;;;;;7.30;4.45;;;15.20;99.90;;;;;;5005569;28;20041;-82
2023/05/21 06:56:45;;;;;;;8.13;5.05;;;15.30;99.90;;;;;;5020668;28;20044;-85
2023/05/21 06:59:11;;;;;;;9.30;5.13;;;15.30;99.90;;;;;;5005100;28;20047;-86
2023/05/21 07:01:41;;;;;;;6.95;4.80;;;15.40;99.90;;;;;;5020037;28;20484;-85
2023/05/21 07:04:07;;;;;;;8.80;4.88;;;15.50;99.90;;;;;;5002350;28;20040;-83
2023/05/21 07:06:34;;;;;;;7.80;5.22;;;15.50;99.90;;;;;;5033815;28;20493;-84
2023/05/21 07:08:59;;;;;;;10.07;5.47;;;15.50;99.90;;;;;;5003149;28;20029;-84
2023/05/21 07:11:28;;;;;;;8.88;5.32;;;15.50;99.90;;;;;;5010303;28;20044;-84
2023/05/21 07:13:56;;;;;;;8.02;5.28;;;15.50;99.90;;;;;;4994256;28;20044;-83
2023/05/21 07:16:22;;;;;;;7.93;5.30;;;15.60;99.90;;;;;;5036963;28;20045;-84
2023/05/21 07:18:48;;;;;;;6.97;5.18;;;15.70;99.90;;;;;;5036640;28;20545;-84
2023/05/21 07:21:13;;;;;;;9.18;4.93;;;15.80;99.90;;;;;;5017836;28;20041;-84
2023/05/21 07:23:39;;;;;;;8.55;5.50;;;15.90;99.90;;;;;;4999993;28;20128;-84
2023/05/21 07:26:05;;;;;;;10.70;5.22;;;16.00;99.90;;;;;;4985247;28;20435;-84
2023/05/21 07:28:31;;;;;;;11.88;5.35;;;16.20;99.90;;;;;;5002505;28;20119;-84
2023/05/21 07:30:56;;;;;;;7.82;4.70;;;16.30;99.90;;;;;;5020089;28;20048;-86
2023/05/21 07:33:22;;;;;;;11.10;5.43;;;16.40;99.90;;;;;;5015351;28;20060;-84
2023/05/21 07:35:48;;;;;;;7.55;4.80;;;16.50;99.90;;;;;;5009974;28;20143;-86
2023/05/21 07:38:14;;;;;;;10.85;4.95;;;16.60;99.90;;;;;;5037453;28;20041;-86
2023/05/21 07:40:39;;;;;;;8.57;5.05;;;16.70;99.90;;;;;;5028676;28;20041;-86
2023/05/21 07:43:05;;;;;;;9.40;5.05;;;16.80;99.90;;;;;;5020292;28;20105;-87
2023/05/21 07:45:31;;;;;;;11.32;5.18;;;16.90;99.90;;;;;;5011413;28;20042;-87
2023/05/21 07:47:56;;;;;;;9.57;4.97;;;17.00;99.90;;;;;;4981250;28;20368;-86
2023/05/21 07:50:22;;;;;;;9.07;4.95;;;17.00;99.90;;;;;;4995492;28;20550;-87
2023/05/21 07:52:48;;;;;;;9.75;5.25;;;17.00;99.90;;;;;;4975042;28;20038;-88
2023/05/21 07:55:14;;;;;;;8.35;4.95;;;17.00;99.90;;;;;;5000290;28;20044;-89
2023/05/21 07:57:40;;;;;;;7.72;5.32;;;17.00;99.90;;;;;;5019327;28;20126;-86
2023/05/21 08:00:12;;;;;;;7.10;4.43;;;17.00;99.90;;;;;;5035825;28;20577;-88
2023/05/21 08:02:38;;;;;;;9.90;5.15;;;17.20;99.90;;;;;;5004276;28;20041;-87
2023/05/21 08:05:05;;;;;;;8.20;4.68;;;17.20;99.90;;;;;;5015229;28;20178;-87
2023/05/21 08:07:31;;;;;;;8.60;5.03;;;17.30;99.90;;;;;;5000410;28;20044;-87
2023/05/21 08:09:57;;;;;;;10.00;5.25;;;17.40;99.90;;;;;;5035234;28;20044;-87
2023/05/21 08:12:23;;;;;;;9.07;5.30;;;17.40;99.90;;;;;;5001077;28;20601;-89
2023/05/21 08:14:49;;;;;;;8.80;4.97;;;17.50;99.90;;;;;;4996864;28;20125;-89
2023/05/21 08:17:15;;;;;;;11.80;4.80;;;17.60;99.90;;;;;;4988190;28;20089;-88
2023/05/21 08:19:41;;;;;;;12.25;5.22;;;17.80;99.90;;;;;;4997333;28;20158;-88
2023/05/21 08:22:06;;;;;;;9.90;4.88;;;17.90;99.90;;;;;;5007782;28;20037;-87
2023/05/21 08:24:32;;;;;;;9.43;5.13;;;18.10;99.90;;;;;;5006761;28;20033;-89
2023/05/21 08:26:58;;;;;;;10.35;5.55;;;18.30;99.90;;;;;;5018845;28;20044;-88
2023/05/21 08:29:24;;;;;;;9.63;5.63;;;18.30;99.90;;;;;;5002477;28;20072;-87
2023/05/21 08:31:49;;;;;;;7.47;5.10;;;18.40;99.90;;;;;;5019911;28;20468;-89
2023/05/21 08:34:17;;;;;;;8.20;4.93;;;18.60;99.90;;;;;;5019140;28;20493;-87
2023/05/21 08:36:44;;;;;;;7.25;5.20;;;18.70;99.90;;;;;;4987559;28;20048;-85
2023/05/21 08:39:11;;;;;;;7.60;5.22;;;18.80;99.90;;;;;;5016570;28;20037;-86
2023/05/21 08:41:39;;;;;;;8.75;5.50;;;18.90;99.90;;;;;;5000654;28;20084;-87
2023/05/21 08:44:10;;;;;;;10.18;5.45;;;18.90;99.90;;;;;;5016442;28;20122;-86
2023/05/21 08:46:39;;;;;;;8.68;5.40;;;18.90;99.90;;;;;;4999799;28;20045;-85
2023/05/21 08:49:09;;;;;;;8.00;5.50;;;18.90;99.90;;;;;;5005001;28;20021;-85
2023/05/21 08:51:34;;;;;;;6.43;4.90;;;18.80;99.90;;;;;;5038204;28;20033;-84
2023/05/21 08:54:01;;;;;;;9.43;6.18;;;18.80;99.90;;;;;;5012058;28;20038;-85
2023/05/21 08:56:29;;;;;;;8.18;5.70;;;18.80;99.90;;;;;;5001643;28;20041;-85
2023/05/21 08:58:56;;;;;;;8.70;6.00;;;18.80;99.90;;;;;;5030480;28;20473;-86
2023/05/21 09:01:22;;;;;;;8.80;5.60;;;18.80;99.90;;;;;;5018166;28;20040;-85
2023/05/21 09:03:50;;;;;;;7.82;5.40;;;18.70;99.90;;;;;;5020134;28;20045;-86
2023/05/21 09:06:16;;;;;;;10.52;5.57;;;18.80;99.90;;;;;;5014304;28;20394;-84
2023/05/21 09:08:52;;;;;;;11.02;5.82;;;18.70;99.90;;;;;;5027864;28;20053;-84
2023/05/21 09:11:18;;;;;;;9.35;5.60;;;18.70;99.90;;;;;;5019421;28;20397;-85
2023/05/21 09:13:45;;;;;;;8.40;5.75;;;18.60;99.90;;;;;;4996850;28;20049;-84
2023/05/21 09:16:11;;;;;;;9.23;5.68;;;18.60;99.90;;;;;;4980318;28;20053;-86
2023/05/21 09:18:37;;;;;;;10.82;5.80;;;18.60;99.90;;;;;;5001365;28;20050;-85
2023/05/21 09:21:22;;;;;;;7.47;5.57;;;18.60;99.90;;;;;;5023541;28;20389;-86
2023/05/21 09:23:56;;;;;;;8.75;5.05;;;18.60;99.90;;;;;;5023038;28;20045;-86
2023/05/21 09:26:23;;;;;;;10.25;6.18;;;18.70;99.90;;;;;;5000097;28;20389;-86
2023/05/21 09:28:50;;;;;;;7.68;5.47;;;18.80;99.90;;;;;;5013854;28;20557;-86
2023/05/21 09:31:16;;;;;;;10.65;5.72;;;18.80;99.90;;;;;;5016465;28;20171;-89
2023/05/21 09:33:47;;;;;;;11.80;5.75;;;18.80;99.90;;;;;;4997082;28;20142;-88
2023/05/21 09:36:13;;;;;;;9.38;6.00;;;18.90;99.90;;;;;;5030621;28;20094;-88
2023/05/21 09:38:39;;;;;;;6.57;5.63;;;19.00;99.90;;;;;;5015833;28;20116;-86
2023/05/21 09:41:05;;;;;;;10.10;6.03;;;19.00;99.90;;;;;;5002418;28;20123;-85
2023/05/21 09:43:31;;;;;;;8.50;5.43;;;19.10;99.90;;;;;;4998748;28;20033;-86
2023/05/21 09:45:58;;;;;;;7.18;5.63;;;19.00;99.90;;;;;;4998915;28;20508;-85
2023/05/21 09:48:41;;;;;;;9.77;5.65;;;19.00;99.90;;;;;;5014815;28;20072;-85
2023/05/21 09:51:11;;;;;;;8.32;5.38;;;19.10;99.90;;;;;;5008339;28;20394;-85
2023/05/21 09:53:48;;;;;;;8.57;5.85;;;19.20;99.90;;;;;;5005913;28;20046;-85
2023/05/21 09:56:13;;;;;;;8.40;5.60;;;19.40;99.90;;;;;;5018042;28;20048;-86
2023/05/21 09:58:39;;;;;;;8.57;5.53;;;19.50;99.90;;;;;;5019108;28;20041;-86
2023/05/21 10:01:06;;;;;;;7.68;5.03;;;19.50;99.90;;;;;;5002680;28;20033;-86
2023/05/21 10:03:36;;;;;;;9.38;6.10;;;19.50;99.90;;;;;;4993414;28;20132;-85
2023/05/21 10:06:02;;;;;;;10.25;6.22;;;19.60;99.90;;;;;;5037661;28;20050;-86
2023/05/21 10:08:32;;;;;;;11.23;6.50;;;19.60;99.90;;;;;;5039934;28;20455;-86
2023/05/21 10:10:59;;;;;;;11.23;6.30;;;19.70;99.90;;;;;;5032452;28;20044;-86
2023/05/21 10:13:26;;;;;;;13.43;6.10;;;19.70;99.90;;;;;;4984962;28;20106;-84
2023/05/21 10:16:02;;;;;;;10.48;6.40;;;19.80;99.90;;;;;;5023027;28;20443;-85
2023/05/21 10:18:29;;;;;;;9.32;6.03;;;19.80;99.90;;;;;;5022058;28;20037;-85
2023/05/21 10:20:55;;;;;;;11.65;5.65;;;19.90;99.90;;;;;;5038162;28;20054;-86
2023/05/21 10:23:23;;;;;;;10.20;5.80;;;20.00;99.90;;;;;;5001853;28;20056;-85
2023/05/21 10:25:51;;;;;;;11.13;5.95;;;20.00;99.90;;;;;;5019557;28;20139;-85
2023/05/21 10:28:18;;;;;;;8.70;6.18;;;20.00;99.90;;;;;;5027038;28;20045;-86
2023/05/21 10:30:45;;;;;;;11.27;6.90;;;20.00;99.90;;;;;;4997804;28;20039;-85
2023/05/21 10:33:15;;;;;;;8.57;6.22;;;19.90;99.90;;;;;;4997956;28;20075;-86
2023/05/21 10:35:43;;;;;;;11.63;6.22;;;20.00;99.90;;;;;;5003170;28;20486;-86
2023/05/21 10:38:10;;;;;;;9.80;6.72;;;20.00;99.90;;;;;;5026605;28;20114;-85
2023/05/21 10:40:36;;;;;;;9.27;5.90;;;20.10;99.90;;;;;;5032963;28;20055;-83
2023/05/21 10:43:35;;;;;;;9.20;6.10;;;20.20;99.90;;;;;;4980848;28;20519;-86
2023/05/21 10:46:23;;;;;;;9.02;5.80;;;20.30;99.90;;;;;;5027103;28;20535;-86
2023/05/21 10:49:13;;;;;;;11.23;6.88;;;20.30;99.90;;;;;;5009539;28;20390;-86
2023/05/21 10:52:07;;;;;;;8.13;6.72;;;20.40;99.90;;;;;;5018959;28;20469;-85
2023/05/21 10:54:58;;;;;;;10.43;7.13;;;20.40;99.90;;;;;;5023787;28;20114;-85
2023/05/21 10:58:12;;;;;;;10.38;7.05;;;20.50;99.90;;;;;;5020018;28;20175;-86
2023/05/21 11:00:38;;;;;;;10.00;7.25;;;20.50;99.90;;;;;;4986607;28;20136;-85
2023/05/21 11:03:05;;;;;;;11.25;8.00;;;20.50;99.90;;;;;;4988662;28;20074;-85
2023/05/21 11:05:49;;;;;;;11.88;7.10;;;20.50;99.90;;;;;;4989058;28;20059;-85
2023/05/21 11:08:23;;;;;;;14.55;8.02;;;20.60;99.90;;;;;;5036590;28;20431;-85
2023/05/21 11:10:53;;;;;;;16.08;10.18;;;20.60;99.90;;;;;;5021266;28;20144;-85
2023/05/21 11:13:20;;;;;;;18.15;10.13;;;20.70;99.90;;;;;;5020670;28;20047;-85
2023/05/21 11:15:58;;;;;;;12.57;9.20;;;20.80;99.90;;;;;;5012205;28;20124;-85
2023/05/21 11:18:36;;;;;;;11.38;8.18;;;20.80;99.90;;;;;;5048920;28;20033;-85
2023/05/21 11:21:21;;;;;;;13.52;9.52;;;20.80;99.90;;;;;;5035774;28;20032;-85
2023/05/21 11:23:49;;;;;;;10.38;8.43;;;20.90;99.90;;;;;;5020193;28;20392;-85
2023/05/21 11:26:22;;;;;;;14.20;9.32;;;20.90;99.90;;;;;;5021263;28;20041;-85
2023/05/21 11:29:03;;;;;;;15.65;9.80;;;20.90;99.90;;;;;;5037260;28;20508;-86
2023/05/21 11:31:36;;;;;;;15.70;10.10;;;21.00;99.90;;;;;;5019566;28;20563;-86
2023/05/21 11:34:18;;;;;;;12.32;9.38;;;21.00;99.90;;;;;;5021671;28;20045;-85
2023/05/21 11:36:45;;;;;;;12.73;8.30;;;21.10;99.90;;;;;;5020537;28;20037;-86
2023/05/21 11:39:21;;;;;;;13.68;8.57;;;21.30;99.90;;;;;;5002633;28;20171;-86
2023/05/21 11:41:57;;;;;;;15.45;8.70;;;21.30;99.90;;;;;;5003751;28;20048;-85
2023/05/21 11:44:45;;;;;;;12.55;8.65;;;21.50;99.90;;;;;;5018287;28;20493;-86
2023/05/21 11:47:16;;;;;;;14.52;9.30;;;21.70;99.90;;;;;;4994386;28;20034;-86
2023/05/21 11:49:43;;;;;;;14.13;10.05;;;21.80;99.90;;;;;;5017010;28;20127;-85
2023/05/21 11:52:10;;;;;;;13.98;9.18;;;21.80;99.90;;;;;;5004705;28;20401;-85
2023/05/21 11:54:50;;;;;;;11.82;8.10;;;21.80;99.90;;;;;;5020758;28;20033;-85
2023/05/21 11:57:17;;;;;;;14.95;9.30;;;21.80;99.90;;;;;;5019553;28;20132;-85
2023/05/21 11:59:44;;;;;;;13.40;9.90;;;21.90;99.90;;;;;;5020992;28;20072;-86
2023/05/21 12:02:19;;;;;;;14.30;9.77;;;21.80;99.90;;;;;;5037016;28;20394;-86
2023/05/21 12:04:47;;;;;;;11.00;9.30;;;21.80;99.90;;;;;;5035374;28;20040;-86
2023/05/21 12:07:15;;;;;;;11.70;8.98;;;21.90;99.90;;;;;;5004117;28;20099;-85
2023/05/21 12:09:42;;;;;;;14.10;9.55;;;21.90;99.90;;;;;;5020532;28;20159;-86
2023/05/21 12:12:10;;;;;;;11.10;9.40;;;21.90;99.90;;;;;;4987279;28;20504;-86
2023/05/21 12:14:36;;;;;;;13.77;10.05;;;22.00;99.90;;;;;;5018776;28;20380;-87
2023/05/21 12:17:06;;;;;;;14.32;9.38;;;22.00;99.90;;;;;;4987656;28;20473;-84
2023/05/21 12:19:36;;;;;;;13.15;8.68;;;22.00;99.90;;;;;;5019592;28;20555;-87
2023/05/21 12:22:06;;;;;;;15.38;9.63;;;22.20;99.90;;;;;;5019656;28;20041;-85
2023/05/21 12:24:33;;;;;;;12.45;9.18;;;22.30;99.90;;;;;;5019754;28;20037;-87
2023/05/21 12:27:00;;;;;;;12.13;9.90;;;22.50;99.90;;;;;;5015870;28;21061;-85
2023/05/21 12:29:30;;;;;;;13.75;9.02;;;22.60;99.90;;;;;;5018245;28;20037;-86
2023/05/21 12:32:07;;;;;;;14.60;9.00;;;22.70;99.90;;;;;;5047511;28;20063;-86
2023/05/21 12:34:48;;;;;;;14.15;9.63;;;22.80;99.90;;;;;;5011455;28;20037;-86
2023/05/21 12:37:25;;;;;;;14.63;8.82;;;23.00;99.90;;;;;;5001704;28;20040;-86
2023/05/21 12:39:57;;;;;;;11.30;8.25;;;23.10;99.90;;;;;;5019753;28;20044;-86
2023/05/21 12:42:33;;;;;;;12.57;8.75;;;23.30;99.90;;;;;;5017996;28;20037;-86
2023/05/21 12:44:59;;;;;;;14.10;9.40;;;23.40;99.90;;;;;;5019586;28;20160;-86
2023/05/21 12:47:26;;;;;;;11.90;8.60;;;23.50;99.90;;;;;;5009328;28;20069;-85